sensor_id;sensor_type;location;lat;lon;timestamp;P1;durP1;ratioP1;P2;durP2;ratioP2
9976;SDS011;5029;47.378;11.776;2022-11-23T00:04:22;7.80;;;7.10;;
9976;SDS011;5029;47.378;11.776;2022-11-23T00:09:26;7.97;;;7.17;;
9976;SDS011;5029;47.378;11.776;2022-11-23T00:19:37;8.60;;;7.80;;
9976;SDS011;5029;47.378;11.776;2022-11-23T00:24:40;8.77;;;7.80;;
9976;SDS011;5029;47.378;11.776;2022-11-23T00:29:45;8.17;;;7.33;;
9976;SDS011;5029;47.378;11.776;2022-11-23T00:34:49;7.27;;;6.57;;
9976;SDS011;5029;47.378;11.776;2022-11-23T00:39:52;7.10;;;6.30;;
9976;SDS011;5029;47.378;11.776;2022-11-23T00:44:57;6.77;;;6.17;;
9976;SDS011;5029;47.378;11.776;2022-11-23T00:50:01;6.60;;;6.00;;
9976;SDS011;5029;47.378;11.776;2022-11-23T00:55:05;6.63;;;6.03;;
9976;SDS011;5029;47.378;11.776;2022-11-23T01:00:11;7.17;;;6.47;;
9976;SDS011;5029;47.378;11.776;2022-11-23T01:05:15;6.97;;;6.33;;
9976;SDS011;5029;47.378;11.776;2022-11-23T01:10:19;6.60;;;6.00;;
9976;SDS011;5029;47.378;11.776;2022-11-23T01:15:24;6.23;;;5.73;;
9976;SDS011;5029;47.378;11.776;2022-11-23T01:20:28;6.63;;;6.13;;
9976;SDS011;5029;47.378;11.776;2022-11-23T01:25:31;6.87;;;6.27;;
9976;SDS011;5029;47.378;11.776;2022-11-23T01:30:38;7.00;;;6.30;;
9976;SDS011;5029;47.378;11.776;2022-11-23T01:35:42;6.50;;;6.00;;
9976;SDS011;5029;47.378;11.776;2022-11-23T01:40:45;6.47;;;5.93;;
9976;SDS011;5029;47.378;11.776;2022-11-23T01:45:56;7.40;;;6.70;;
9976;SDS011;5029;47.378;11.776;2022-11-23T01:51:01;7.10;;;6.40;;
9976;SDS011;5029;47.378;11.776;2022-11-23T01:56:07;6.73;;;6.13;;
9976;SDS011;5029;47.378;11.776;2022-11-23T02:01:15;6.73;;;6.13;;
9976;SDS011;5029;47.378;11.776;2022-11-23T02:06:19;7.17;;;6.47;;
9976;SDS011;5029;47.378;11.776;2022-11-23T02:11:24;7.60;;;6.90;;
9976;SDS011;5029;47.378;11.776;2022-11-23T02:16:29;6.70;;;6.10;;
9976;SDS011;5029;47.378;11.776;2022-11-23T02:21:33;7.50;;;6.80;;
9976;SDS011;5029;47.378;11.776;2022-11-23T02:26:38;7.23;;;6.53;;
9976;SDS011;5029;47.378;11.776;2022-11-23T02:31:42;7.50;;;6.80;;
9976;SDS011;5029;47.378;11.776;2022-11-23T02:37:03;7.73;;;7.03;;
9976;SDS011;5029;47.378;11.776;2022-11-23T02:42:08;8.33;;;7.53;;
9976;SDS011;5029;47.378;11.776;2022-11-23T02:47:11;7.97;;;7.27;;
9976;SDS011;5029;47.378;11.776;2022-11-23T02:52:15;8.13;;;7.37;;
9976;SDS011;5029;47.378;11.776;2022-11-23T02:57:21;8.27;;;7.47;;
9976;SDS011;5029;47.378;11.776;2022-11-23T03:02:24;8.10;;;7.30;;
9976;SDS011;5029;47.378;11.776;2022-11-23T03:07:28;8.27;;;7.57;;
9976;SDS011;5029;47.378;11.776;2022-11-23T03:12:33;8.93;;;8.03;;
9976;SDS011;5029;47.378;11.776;2022-11-23T03:17:36;8.47;;;7.67;;
9976;SDS011;5029;47.378;11.776;2022-11-23T03:22:40;7.53;;;6.93;;
9976;SDS011;5029;47.378;11.776;2022-11-23T03:27:45;8.00;;;7.30;;
9976;SDS011;5029;47.378;11.776;2022-11-23T03:32:48;8.27;;;7.47;;
9976;SDS011;5029;47.378;11.776;2022-11-23T03:37:52;8.30;;;7.53;;
9976;SDS011;5029;47.378;11.776;2022-11-23T03:42:57;7.70;;;7.00;;
9976;SDS011;5029;47.378;11.776;2022-11-23T03:48:00;7.33;;;6.70;;
9976;SDS011;5029;47.378;11.776;2022-11-23T03:53:04;8.13;;;7.33;;
9976;SDS011;5029;47.378;11.776;2022-11-23T03:58:09;7.90;;;7.20;;
9976;SDS011;5029;47.378;11.776;2022-11-23T04:03:12;8.53;;;7.73;;
9976;SDS011;5029;47.378;11.776;2022-11-23T04:08:16;8.33;;;7.50;;
9976;SDS011;5029;47.378;11.776;2022-11-23T04:13:21;8.80;;;8.00;;
9976;SDS011;5029;47.378;11.776;2022-11-23T04:18:25;8.60;;;7.80;;
9976;SDS011;5029;47.378;11.776;2022-11-23T04:23:28;8.50;;;7.70;;
9976;SDS011;5029;47.378;11.776;2022-11-23T04:28:33;7.60;;;6.90;;
9976;SDS011;5029;47.378;11.776;2022-11-23T04:33:37;8.00;;;7.30;;
9976;SDS011;5029;47.378;11.776;2022-11-23T04:38:40;9.40;;;8.33;;
9976;SDS011;5029;47.378;11.776;2022-11-23T04:43:45;9.93;;;9.03;;
9976;SDS011;5029;47.378;11.776;2022-11-23T04:48:49;9.77;;;8.63;;
9976;SDS011;5029;47.378;11.776;2022-11-23T04:53:52;9.23;;;8.33;;
9976;SDS011;5029;47.378;11.776;2022-11-23T04:58:57;9.77;;;8.87;;
9976;SDS011;5029;47.378;11.776;2022-11-23T05:04:01;9.57;;;8.67;;
9976;SDS011;5029;47.378;11.776;2022-11-23T05:09:04;9.10;;;8.20;;
9976;SDS011;5029;47.378;11.776;2022-11-23T05:14:09;9.57;;;8.60;;
9976;SDS011;5029;47.378;11.776;2022-11-23T05:19:13;9.77;;;8.87;;
9976;SDS011;5029;47.378;11.776;2022-11-23T05:24:16;9.57;;;8.67;;
9976;SDS011;5029;47.378;11.776;2022-11-23T05:29:21;9.40;;;8.53;;
9976;SDS011;5029;47.378;11.776;2022-11-23T05:34:24;9.50;;;8.50;;
9976;SDS011;5029;47.378;11.776;2022-11-23T05:39:28;8.43;;;7.63;;
9976;SDS011;5029;47.378;11.776;2022-11-23T05:44:33;9.13;;;8.33;;
9976;SDS011;5029;47.378;11.776;2022-11-23T05:49:37;9.50;;;8.60;;
9976;SDS011;5029;47.378;11.776;2022-11-23T05:54:40;10.23;;;9.23;;
9976;SDS011;5029;47.378;11.776;2022-11-23T05:59:45;9.30;;;8.40;;
9976;SDS011;5029;47.378;11.776;2022-11-23T06:04:57;10.23;;;9.23;;
9976;SDS011;5029;47.378;11.776;2022-11-23T06:10:32;9.27;;;8.37;;
9976;SDS011;5029;47.378;11.776;2022-11-23T06:15:59;9.80;;;8.90;;
9976;SDS011;5029;47.378;11.776;2022-11-23T06:21:14;8.67;;;7.83;;
9976;SDS011;5029;47.378;11.776;2022-11-23T06:38:25;9.03;;;8.23;;
9976;SDS011;5029;47.378;11.776;2022-11-23T06:43:35;8.30;;;7.50;;
9976;SDS011;5029;47.378;11.776;2022-11-23T06:48:43;8.37;;;7.57;;
9976;SDS011;5029;47.378;11.776;2022-11-23T06:54:07;8.77;;;7.97;;
9976;SDS011;5029;47.378;11.776;2022-11-23T07:12:12;10.33;;;8.93;;
9976;SDS011;5029;47.378;11.776;2022-11-23T07:17:42;10.13;;;9.13;;
9976;SDS011;5029;47.378;11.776;2022-11-23T08:07:01;12.63;;;11.33;;
9976;SDS011;5029;47.378;11.776;2022-11-23T08:17:33;12.67;;;11.37;;
9976;SDS011;5029;47.378;11.776;2022-11-23T08:35:05;12.63;;;11.33;;
9976;SDS011;5029;47.378;11.776;2022-11-23T08:40:28;12.23;;;11.03;;
9976;SDS011;5029;47.378;11.776;2022-11-23T08:45:32;13.70;;;12.20;;
9976;SDS011;5029;47.378;11.776;2022-11-23T08:50:39;15.00;;;12.90;;
9976;SDS011;5029;47.378;11.776;2022-11-23T08:55:46;14.80;;;13.30;;
9976;SDS011;5029;47.378;11.776;2022-11-23T09:00:50;15.83;;;13.70;;
9976;SDS011;5029;47.378;11.776;2022-11-23T09:05:59;15.50;;;13.70;;
9976;SDS011;5029;47.378;11.776;2022-11-23T09:11:07;16.53;;;14.83;;
9976;SDS011;5029;47.378;11.776;2022-11-23T09:16:19;16.30;;;13.53;;
9976;SDS011;5029;47.378;11.776;2022-11-23T09:21:34;15.70;;;14.10;;
9976;SDS011;5029;47.378;11.776;2022-11-23T09:26:41;15.83;;;13.47;;
9976;SDS011;5029;47.378;11.776;2022-11-23T09:31:48;16.10;;;13.53;;
9976;SDS011;5029;47.378;11.776;2022-11-23T09:36:55;11.37;;;10.17;;
9976;SDS011;5029;47.378;11.776;2022-11-23T09:42:07;14.27;;;12.87;;
9976;SDS011;5029;47.378;11.776;2022-11-23T09:47:47;5.57;;;5.03;;
9976;SDS011;5029;47.378;11.776;2022-11-23T09:53:03;6.20;;;5.60;;
9976;SDS011;5029;47.378;11.776;2022-11-23T09:58:18;7.93;;;6.53;;
9976;SDS011;5029;47.378;11.776;2022-11-23T10:03:26;6.27;;;5.67;;
9976;SDS011;5029;47.378;11.776;2022-11-23T10:09:03;5.00;;;4.50;;
9976;SDS011;5029;47.378;11.776;2022-11-23T10:14:29;5.60;;;5.10;;
9976;SDS011;5029;47.378;11.776;2022-11-23T10:19:58;7.10;;;6.30;;
9976;SDS011;5029;47.378;11.776;2022-11-23T10:25:22;6.60;;;5.80;;
9976;SDS011;5029;47.378;11.776;2022-11-23T10:30:32;5.40;;;4.87;;
9976;SDS011;5029;47.378;11.776;2022-11-23T10:35:48;6.60;;;5.57;;
9976;SDS011;5029;47.378;11.776;2022-11-23T10:40:55;6.33;;;5.73;;
9976;SDS011;5029;47.378;11.776;2022-11-23T10:51:48;8.10;;;7.30;;
9976;SDS011;5029;47.378;11.776;2022-11-23T10:57:19;7.30;;;6.07;;
9976;SDS011;5029;47.378;11.776;2022-11-23T11:03:20;7.00;;;6.30;;
9976;SDS011;5029;47.378;11.776;2022-11-23T11:10:30;6.60;;;6.00;;
9976;SDS011;5029;47.378;11.776;2022-11-23T11:14:59;6.50;;;5.90;;
9976;SDS011;5029;47.378;11.776;2022-11-23T11:20:29;5.83;;;5.23;;
9976;SDS011;5029;47.378;11.776;2022-11-23T11:25:42;5.83;;;5.10;;
9976;SDS011;5029;47.378;11.776;2022-11-23T11:49:11;6.73;;;6.03;;
9976;SDS011;5029;47.378;11.776;2022-11-23T11:54:29;6.23;;;5.63;;
9976;SDS011;5029;47.378;11.776;2022-11-23T11:59:48;5.40;;;4.90;;
9976;SDS011;5029;47.378;11.776;2022-11-23T12:05:06;5.20;;;4.70;;
9976;SDS011;5029;47.378;11.776;2022-11-23T12:10:17;5.47;;;4.97;;
9976;SDS011;5029;47.378;11.776;2022-11-23T12:15:33;5.27;;;4.83;;
9976;SDS011;5029;47.378;11.776;2022-11-23T12:20:53;5.20;;;4.70;;
9976;SDS011;5029;47.378;11.776;2022-11-23T12:26:13;5.20;;;4.50;;
9976;SDS011;5029;47.378;11.776;2022-11-23T12:31:26;5.13;;;4.63;;
9976;SDS011;5029;47.378;11.776;2022-11-23T12:36:51;6.80;;;4.57;;
9976;SDS011;5029;47.378;11.776;2022-11-23T12:42:28;5.50;;;4.63;;
9976;SDS011;5029;47.378;11.776;2022-11-23T12:47:45;5.33;;;4.83;;
9976;SDS011;5029;47.378;11.776;2022-11-23T12:53:07;4.90;;;4.40;;
9976;SDS011;5029;47.378;11.776;2022-11-23T13:17:50;4.27;;;3.87;;
9976;SDS011;5029;47.378;11.776;2022-11-23T13:23:09;4.43;;;4.00;;
9976;SDS011;5029;47.378;11.776;2022-11-23T13:40:25;9.73;;;5.30;;
9976;SDS011;5029;47.378;11.776;2022-11-23T13:45:41;5.93;;;5.00;;
9976;SDS011;5029;47.378;11.776;2022-11-23T13:50:57;5.57;;;5.03;;
9976;SDS011;5029;47.378;11.776;2022-11-23T13:56:20;5.70;;;5.10;;
9976;SDS011;5029;47.378;11.776;2022-11-23T14:07:28;4.80;;;4.30;;
9976;SDS011;5029;47.378;11.776;2022-11-23T14:12:53;5.10;;;4.57;;
9976;SDS011;5029;47.378;11.776;2022-11-23T14:18:18;4.47;;;4.07;;
9976;SDS011;5029;47.378;11.776;2022-11-23T14:24:08;5.53;;;4.80;;
9976;SDS011;5029;47.378;11.776;2022-11-23T14:30:13;4.57;;;4.13;;
9976;SDS011;5029;47.378;11.776;2022-11-23T14:35:56;4.87;;;4.47;;
9976;SDS011;5029;47.378;11.776;2022-11-23T14:41:41;5.10;;;4.60;;
9976;SDS011;5029;47.378;11.776;2022-11-23T14:47:06;6.30;;;4.70;;
9976;SDS011;5029;47.378;11.776;2022-11-23T14:52:20;4.40;;;4.00;;
9976;SDS011;5029;47.378;11.776;2022-11-23T14:57:45;7.60;;;4.47;;
9976;SDS011;5029;47.378;11.776;2022-11-23T15:02:59;6.57;;;4.80;;
9976;SDS011;5029;47.378;11.776;2022-11-23T15:08:37;4.57;;;4.17;;
9976;SDS011;5029;47.378;11.776;2022-11-23T15:26:14;5.53;;;4.60;;
9976;SDS011;5029;47.378;11.776;2022-11-23T15:37:59;5.50;;;5.00;;
9976;SDS011;5029;47.378;11.776;2022-11-23T15:43:33;5.27;;;4.77;;
9976;SDS011;5029;47.378;11.776;2022-11-23T15:48:46;6.40;;;5.80;;
9976;SDS011;5029;47.378;11.776;2022-11-23T16:05:13;5.53;;;5.03;;
9976;SDS011;5029;47.378;11.776;2022-11-23T16:10:19;4.83;;;4.43;;
9976;SDS011;5029;47.378;11.776;2022-11-23T16:15:28;4.70;;;4.30;;
9976;SDS011;5029;47.378;11.776;2022-11-23T16:20:45;4.70;;;4.30;;
9976;SDS011;5029;47.378;11.776;2022-11-23T16:25:52;5.10;;;4.37;;
9976;SDS011;5029;47.378;11.776;2022-11-23T16:30:59;4.73;;;4.33;;
9976;SDS011;5029;47.378;11.776;2022-11-23T16:36:06;4.50;;;4.10;;
9976;SDS011;5029;47.378;11.776;2022-11-23T16:41:10;4.37;;;3.97;;
9976;SDS011;5029;47.378;11.776;2022-11-23T16:46:14;4.50;;;3.87;;
9976;SDS011;5029;47.378;11.776;2022-11-23T16:51:20;5.20;;;4.70;;
9976;SDS011;5029;47.378;11.776;2022-11-23T16:56:24;4.87;;;4.47;;
9976;SDS011;5029;47.378;11.776;2022-11-23T17:01:29;5.77;;;5.17;;
9976;SDS011;5029;47.378;11.776;2022-11-23T17:06:36;5.37;;;4.87;;
9976;SDS011;5029;47.378;11.776;2022-11-23T17:11:42;5.40;;;4.90;;
9976;SDS011;5029;47.378;11.776;2022-11-23T17:16:54;7.77;;;6.97;;
9976;SDS011;5029;47.378;11.776;2022-11-23T17:22:04;9.40;;;8.43;;
9976;SDS011;5029;47.378;11.776;2022-11-23T17:27:11;19.83;;;17.73;;
9976;SDS011;5029;47.378;11.776;2022-11-23T17:32:17;6.13;;;5.53;;
9976;SDS011;5029;47.378;11.776;2022-11-23T17:37:23;4.80;;;4.40;;
9976;SDS011;5029;47.378;11.776;2022-11-23T17:42:28;4.83;;;4.43;;
9976;SDS011;5029;47.378;11.776;2022-11-23T17:47:33;8.23;;;7.37;;
9976;SDS011;5029;47.378;11.776;2022-11-23T17:52:40;6.30;;;5.70;;
9976;SDS011;5029;47.378;11.776;2022-11-23T17:57:46;6.93;;;6.33;;
9976;SDS011;5029;47.378;11.776;2022-11-23T18:02:50;5.63;;;5.13;;
9976;SDS011;5029;47.378;11.776;2022-11-23T18:07:57;6.73;;;6.03;;
9976;SDS011;5029;47.378;11.776;2022-11-23T18:13:02;5.73;;;5.23;;
9976;SDS011;5029;47.378;11.776;2022-11-23T18:18:06;5.43;;;4.80;;
9976;SDS011;5029;47.378;11.776;2022-11-23T18:23:14;5.37;;;4.87;;
9976;SDS011;5029;47.378;11.776;2022-11-23T18:28:21;6.00;;;5.40;;
9976;SDS011;5029;47.378;11.776;2022-11-23T18:33:31;5.10;;;4.70;;
9976;SDS011;5029;47.378;11.776;2022-11-23T18:38:38;5.20;;;4.80;;
9976;SDS011;5029;47.378;11.776;2022-11-23T18:43:49;5.20;;;4.73;;
9976;SDS011;5029;47.378;11.776;2022-11-23T18:48:53;5.40;;;4.90;;
9976;SDS011;5029;47.378;11.776;2022-11-23T18:54:04;5.80;;;5.30;;
9976;SDS011;5029;47.378;11.776;2022-11-23T18:59:13;5.67;;;5.17;;
9976;SDS011;5029;47.378;11.776;2022-11-23T19:04:39;5.80;;;5.30;;
9976;SDS011;5029;47.378;11.776;2022-11-23T19:09:47;7.33;;;6.73;;
9976;SDS011;5029;47.378;11.776;2022-11-23T19:14:53;10.23;;;9.43;;
9976;SDS011;5029;47.378;11.776;2022-11-23T19:19:58;6.40;;;5.90;;
9976;SDS011;5029;47.378;11.776;2022-11-23T19:25:11;6.90;;;6.20;;
9976;SDS011;5029;47.378;11.776;2022-11-23T19:30:20;7.37;;;6.67;;
9976;SDS011;5029;47.378;11.776;2022-11-23T19:35:28;9.07;;;8.17;;
9976;SDS011;5029;47.378;11.776;2022-11-23T19:40:36;8.40;;;7.70;;
9976;SDS011;5029;47.378;11.776;2022-11-23T19:45:42;9.00;;;8.10;;
9976;SDS011;5029;47.378;11.776;2022-11-23T19:50:53;9.17;;;8.37;;
9976;SDS011;5029;47.378;11.776;2022-11-23T19:56:03;9.10;;;8.23;;
9976;SDS011;5029;47.378;11.776;2022-11-23T20:01:09;9.73;;;8.73;;
9976;SDS011;5029;47.378;11.776;2022-11-23T20:06:16;9.13;;;8.27;;
9976;SDS011;5029;47.378;11.776;2022-11-23T20:11:28;9.13;;;8.23;;
9976;SDS011;5029;47.378;11.776;2022-11-23T20:16:37;8.23;;;7.50;;
9976;SDS011;5029;47.378;11.776;2022-11-23T20:21:42;10.43;;;8.40;;
9976;SDS011;5029;47.378;11.776;2022-11-23T20:26:48;8.83;;;7.90;;
9976;SDS011;5029;47.378;11.776;2022-11-23T20:32:00;8.77;;;7.83;;
9976;SDS011;5029;47.378;11.776;2022-11-23T20:37:20;8.27;;;7.47;;
9976;SDS011;5029;47.378;11.776;2022-11-23T20:42:31;9.60;;;8.33;;
9976;SDS011;5029;47.378;11.776;2022-11-23T20:47:36;9.17;;;8.07;;
9976;SDS011;5029;47.378;11.776;2022-11-23T20:52:41;11.17;;;7.87;;
9976;SDS011;5029;47.378;11.776;2022-11-23T20:57:48;10.43;;;8.27;;
9976;SDS011;5029;47.378;11.776;2022-11-23T21:03:02;9.70;;;8.70;;
9976;SDS011;5029;47.378;11.776;2022-11-23T21:08:22;8.23;;;7.43;;
9976;SDS011;5029;47.378;11.776;2022-11-23T21:38:30;8.10;;;6.63;;
9976;SDS011;5029;47.378;11.776;2022-11-23T21:51:06;8.17;;;7.07;;
9976;SDS011;5029;47.378;11.776;2022-11-23T21:56:45;7.40;;;6.53;;
9976;SDS011;5029;47.378;11.776;2022-11-23T22:02:08;7.80;;;6.93;;
9976;SDS011;5029;47.378;11.776;2022-11-23T22:07:21;7.13;;;6.37;;
9976;SDS011;5029;47.378;11.776;2022-11-23T22:12:29;5.57;;;5.07;;
9976;SDS011;5029;47.378;11.776;2022-11-23T22:17:34;5.53;;;5.03;;
9976;SDS011;5029;47.378;11.776;2022-11-23T22:22:39;4.43;;;4.03;;
9976;SDS011;5029;47.378;11.776;2022-11-23T22:27:42;4.30;;;3.90;;
9976;SDS011;5029;47.378;11.776;2022-11-23T22:32:46;4.37;;;3.97;;
9976;SDS011;5029;47.378;11.776;2022-11-23T22:37:51;4.03;;;3.63;;
9976;SDS011;5029;47.378;11.776;2022-11-23T22:42:57;4.00;;;3.70;;
9976;SDS011;5029;47.378;11.776;2022-11-23T22:48:01;4.07;;;3.73;;
9976;SDS011;5029;47.378;11.776;2022-11-23T22:53:07;3.73;;;3.43;;
9976;SDS011;5029;47.378;11.776;2022-11-23T22:58:11;4.07;;;3.67;;
9976;SDS011;5029;47.378;11.776;2022-11-23T23:03:14;3.77;;;3.47;;
9976;SDS011;5029;47.378;11.776;2022-11-23T23:08:20;3.40;;;3.10;;
9976;SDS011;5029;47.378;11.776;2022-11-23T23:13:23;3.70;;;3.30;;
9976;SDS011;5029;47.378;11.776;2022-11-23T23:18:27;3.73;;;2.90;;
9976;SDS011;5029;47.378;11.776;2022-11-23T23:23:34;3.57;;;3.27;;
9976;SDS011;5029;47.378;11.776;2022-11-23T23:28:38;2.90;;;2.60;;
9976;SDS011;5029;47.378;11.776;2022-11-23T23:33:45;3.17;;;2.87;;
9976;SDS011;5029;47.378;11.776;2022-11-23T23:38:50;3.03;;;2.73;;
9976;SDS011;5029;47.378;11.776;2022-11-23T23:43:54;3.13;;;2.80;;
9976;SDS011;5029;47.378;11.776;2022-11-23T23:48:57;3.00;;;2.70;;
9976;SDS011;5029;47.378;11.776;2022-11-23T23:54:03;3.07;;;2.87;;
9976;SDS011;5029;47.378;11.776;2022-11-23T23:59:07;3.50;;;3.20;;
